sensor_id;sensor_type;location;lat;lon;timestamp;P1;durP1;ratioP1;P2;durP2;ratioP2
26620;SDS011;14253;44.840;10.444;2023-02-23T00:01:32;180.20;;;87.57;;
26620;SDS011;14253;44.840;10.444;2023-02-23T00:03:58;179.15;;;84.70;;
26620;SDS011;14253;44.840;10.444;2023-02-23T00:06:26;184.98;;;86.50;;
26620;SDS011;14253;44.840;10.444;2023-02-23T00:08:53;199.43;;;89.05;;
26620;SDS011;14253;44.840;10.444;2023-02-23T00:11:19;208.48;;;91.65;;
26620;SDS011;14253;44.840;10.444;2023-02-23T00:13:47;201.88;;;89.97;;
26620;SDS011;14253;44.840;10.444;2023-02-23T00:16:15;196.32;;;89.43;;
26620;SDS011;14253;44.840;10.444;2023-02-23T00:18:47;191.75;;;84.50;;
26620;SDS011;14253;44.840;10.444;2023-02-23T00:21:30;189.80;;;86.40;;
26620;SDS011;14253;44.840;10.444;2023-02-23T00:26:33;202.55;;;91.82;;
26620;SDS011;14253;44.840;10.444;2023-02-23T00:29:01;183.95;;;85.43;;
26620;SDS011;14253;44.840;10.444;2023-02-23T00:31:29;186.20;;;87.47;;
26620;SDS011;14253;44.840;10.444;2023-02-23T00:33:56;196.20;;;90.22;;
26620;SDS011;14253;44.840;10.444;2023-02-23T00:36:25;200.73;;;89.80;;
26620;SDS011;14253;44.840;10.444;2023-02-23T00:38:53;201.68;;;89.13;;
26620;SDS011;14253;44.840;10.444;2023-02-23T00:41:20;194.65;;;86.55;;
26620;SDS011;14253;44.840;10.444;2023-02-23T00:43:53;197.30;;;89.22;;
26620;SDS011;14253;44.840;10.444;2023-02-23T00:46:22;214.13;;;91.22;;
26620;SDS011;14253;44.840;10.444;2023-02-23T00:48:51;199.65;;;86.25;;
26620;SDS011;14253;44.840;10.444;2023-02-23T00:51:22;205.63;;;91.03;;
26620;SDS011;14253;44.840;10.444;2023-02-23T00:53:56;189.23;;;87.93;;
26620;SDS011;14253;44.840;10.444;2023-02-23T00:56:24;192.73;;;85.75;;
26620;SDS011;14253;44.840;10.444;2023-02-23T00:58:50;182.88;;;86.03;;
26620;SDS011;14253;44.840;10.444;2023-02-23T01:01:16;204.32;;;90.97;;
26620;SDS011;14253;44.840;10.444;2023-02-23T01:03:43;173.73;;;83.65;;
26620;SDS011;14253;44.840;10.444;2023-02-23T01:06:10;197.63;;;89.28;;
26620;SDS011;14253;44.840;10.444;2023-02-23T01:08:41;195.50;;;86.47;;
26620;SDS011;14253;44.840;10.444;2023-02-23T01:11:13;201.80;;;91.38;;
26620;SDS011;14253;44.840;10.444;2023-02-23T01:13:42;206.05;;;90.97;;
26620;SDS011;14253;44.840;10.444;2023-02-23T01:16:10;192.52;;;86.53;;
26620;SDS011;14253;44.840;10.444;2023-02-23T01:18:38;195.55;;;89.00;;
26620;SDS011;14253;44.840;10.444;2023-02-23T01:21:12;201.60;;;92.88;;
26620;SDS011;14253;44.840;10.444;2023-02-23T01:26:17;190.95;;;84.47;;
26620;SDS011;14253;44.840;10.444;2023-02-23T01:28:48;179.57;;;84.13;;
26620;SDS011;14253;44.840;10.444;2023-02-23T01:31:16;190.73;;;87.40;;
26620;SDS011;14253;44.840;10.444;2023-02-23T01:33:43;191.98;;;87.03;;
26620;SDS011;14253;44.840;10.444;2023-02-23T01:36:10;215.90;;;89.90;;
26620;SDS011;14253;44.840;10.444;2023-02-23T01:38:39;206.63;;;88.95;;
26620;SDS011;14253;44.840;10.444;2023-02-23T01:41:05;206.02;;;90.40;;
26620;SDS011;14253;44.840;10.444;2023-02-23T01:43:33;197.40;;;92.90;;
26620;SDS011;14253;44.840;10.444;2023-02-23T01:46:01;199.43;;;87.95;;
26620;SDS011;14253;44.840;10.444;2023-02-23T01:48:29;204.63;;;91.47;;
26620;SDS011;14253;44.840;10.444;2023-02-23T01:51:01;200.05;;;89.30;;
26620;SDS011;14253;44.840;10.444;2023-02-23T01:53:35;189.43;;;85.20;;
26620;SDS011;14253;44.840;10.444;2023-02-23T01:56:06;194.05;;;89.55;;
26620;SDS011;14253;44.840;10.444;2023-02-23T01:58:37;188.07;;;87.50;;
26620;SDS011;14253;44.840;10.444;2023-02-23T02:01:05;223.60;;;93.72;;
26620;SDS011;14253;44.840;10.444;2023-02-23T02:03:42;211.65;;;92.10;;
26620;SDS011;14253;44.840;10.444;2023-02-23T02:06:13;205.90;;;89.63;;
26620;SDS011;14253;44.840;10.444;2023-02-23T02:11:13;183.95;;;84.18;;
26620;SDS011;14253;44.840;10.444;2023-02-23T02:13:58;211.65;;;92.15;;
26620;SDS011;14253;44.840;10.444;2023-02-23T02:41:33;207.32;;;90.93;;
26620;SDS011;14253;44.840;10.444;2023-02-23T02:44:54;208.75;;;91.95;;
26620;SDS011;14253;44.840;10.444;2023-02-23T02:47:27;198.48;;;89.50;;
26620;SDS011;14253;44.840;10.444;2023-02-23T02:50:13;212.73;;;92.70;;
26620;SDS011;14253;44.840;10.444;2023-02-23T02:52:52;215.23;;;89.65;;
26620;SDS011;14253;44.840;10.444;2023-02-23T02:55:22;200.57;;;90.88;;
26620;SDS011;14253;44.840;10.444;2023-02-23T02:58:01;212.75;;;92.07;;
26620;SDS011;14253;44.840;10.444;2023-02-23T03:00:39;205.70;;;91.15;;
26620;SDS011;14253;44.840;10.444;2023-02-23T03:03:32;224.98;;;94.85;;
26620;SDS011;14253;44.840;10.444;2023-02-23T03:06:30;212.93;;;93.20;;
26620;SDS011;14253;44.840;10.444;2023-02-23T03:21:42;220.52;;;95.47;;
26620;SDS011;14253;44.840;10.444;2023-02-23T03:27:45;204.60;;;89.72;;
26620;SDS011;14253;44.840;10.444;2023-02-23T03:37:18;227.00;;;95.13;;
26620;SDS011;14253;44.840;10.444;2023-02-23T03:40:26;222.25;;;94.32;;
26620;SDS011;14253;44.840;10.444;2023-02-23T03:43:16;221.93;;;95.30;;
26620;SDS011;14253;44.840;10.444;2023-02-23T03:46:05;202.32;;;89.18;;
26620;SDS011;14253;44.840;10.444;2023-02-23T03:48:53;213.45;;;91.60;;
26620;SDS011;14253;44.840;10.444;2023-02-23T03:51:40;201.98;;;89.45;;
26620;SDS011;14253;44.840;10.444;2023-02-23T03:54:33;226.07;;;95.97;;
26620;SDS011;14253;44.840;10.444;2023-02-23T03:57:24;204.30;;;88.65;;
26620;SDS011;14253;44.840;10.444;2023-02-23T04:00:12;206.15;;;93.63;;
26620;SDS011;14253;44.840;10.444;2023-02-23T04:03:00;213.35;;;94.32;;
26620;SDS011;14253;44.840;10.444;2023-02-23T04:05:47;232.73;;;97.90;;
26620;SDS011;14253;44.840;10.444;2023-02-23T04:08:35;218.52;;;92.63;;
26620;SDS011;14253;44.840;10.444;2023-02-23T04:11:32;226.25;;;96.00;;
26620;SDS011;14253;44.840;10.444;2023-02-23T04:17:26;233.00;;;96.82;;
26620;SDS011;14253;44.840;10.444;2023-02-23T04:19:54;231.65;;;100.10;;
26620;SDS011;14253;44.840;10.444;2023-02-23T04:22:22;238.55;;;97.40;;
26620;SDS011;14253;44.840;10.444;2023-02-23T04:24:49;234.10;;;94.45;;
26620;SDS011;14253;44.840;10.444;2023-02-23T04:27:15;238.30;;;97.93;;
26620;SDS011;14253;44.840;10.444;2023-02-23T04:29:42;232.57;;;101.30;;
26620;SDS011;14253;44.840;10.444;2023-02-23T04:32:11;233.57;;;96.68;;
26620;SDS011;14253;44.840;10.444;2023-02-23T04:34:39;224.85;;;93.07;;
26620;SDS011;14253;44.840;10.444;2023-02-23T04:37:06;213.73;;;91.60;;
26620;SDS011;14253;44.840;10.444;2023-02-23T04:39:32;199.02;;;87.70;;
26620;SDS011;14253;44.840;10.444;2023-02-23T04:41:58;185.60;;;88.68;;
26620;SDS011;14253;44.840;10.444;2023-02-23T04:44:23;212.85;;;89.22;;
26620;SDS011;14253;44.840;10.444;2023-02-23T04:46:49;195.20;;;86.78;;
26620;SDS011;14253;44.840;10.444;2023-02-23T04:49:15;210.77;;;92.93;;
26620;SDS011;14253;44.840;10.444;2023-02-23T04:51:41;201.05;;;88.22;;
26620;SDS011;14253;44.840;10.444;2023-02-23T04:54:07;204.95;;;89.60;;
26620;SDS011;14253;44.840;10.444;2023-02-23T04:56:34;216.48;;;93.05;;
26620;SDS011;14253;44.840;10.444;2023-02-23T04:58:59;205.05;;;88.50;;
26620;SDS011;14253;44.840;10.444;2023-02-23T05:01:25;215.75;;;88.93;;
26620;SDS011;14253;44.840;10.444;2023-02-23T05:03:52;232.77;;;94.72;;
26620;SDS011;14253;44.840;10.444;2023-02-23T05:06:20;226.35;;;96.60;;
26620;SDS011;14253;44.840;10.444;2023-02-23T05:08:46;233.30;;;98.35;;
26620;SDS011;14253;44.840;10.444;2023-02-23T05:11:12;223.18;;;97.10;;
26620;SDS011;14253;44.840;10.444;2023-02-23T05:13:37;215.57;;;94.13;;
26620;SDS011;14253;44.840;10.444;2023-02-23T05:16:03;248.63;;;101.07;;
26620;SDS011;14253;44.840;10.444;2023-02-23T05:18:30;215.40;;;94.03;;
26620;SDS011;14253;44.840;10.444;2023-02-23T05:21:05;202.82;;;88.07;;
26620;SDS011;14253;44.840;10.444;2023-02-23T05:23:33;222.15;;;94.80;;
26620;SDS011;14253;44.840;10.444;2023-02-23T05:26:01;214.88;;;91.38;;
26620;SDS011;14253;44.840;10.444;2023-02-23T05:28:32;211.15;;;88.40;;
26620;SDS011;14253;44.840;10.444;2023-02-23T05:30:59;215.32;;;90.43;;
26620;SDS011;14253;44.840;10.444;2023-02-23T05:33:25;210.82;;;92.43;;
26620;SDS011;14253;44.840;10.444;2023-02-23T05:35:51;212.02;;;93.95;;
26620;SDS011;14253;44.840;10.444;2023-02-23T05:38:17;232.35;;;99.20;;
26620;SDS011;14253;44.840;10.444;2023-02-23T05:40:44;212.88;;;90.20;;
26620;SDS011;14253;44.840;10.444;2023-02-23T05:43:10;203.70;;;91.57;;
26620;SDS011;14253;44.840;10.444;2023-02-23T05:45:38;216.93;;;91.53;;
26620;SDS011;14253;44.840;10.444;2023-02-23T05:48:06;206.35;;;90.43;;
26620;SDS011;14253;44.840;10.444;2023-02-23T05:50:32;191.80;;;86.85;;
26620;SDS011;14253;44.840;10.444;2023-02-23T05:52:58;232.18;;;97.30;;
26620;SDS011;14253;44.840;10.444;2023-02-23T05:55:24;238.05;;;100.28;;
26620;SDS011;14253;44.840;10.444;2023-02-23T05:57:51;236.73;;;97.15;;
26620;SDS011;14253;44.840;10.444;2023-02-23T06:00:17;244.68;;;100.10;;
26620;SDS011;14253;44.840;10.444;2023-02-23T06:02:43;244.30;;;100.32;;
26620;SDS011;14253;44.840;10.444;2023-02-23T06:05:10;241.70;;;97.53;;
26620;SDS011;14253;44.840;10.444;2023-02-23T06:07:37;238.07;;;99.05;;
26620;SDS011;14253;44.840;10.444;2023-02-23T06:10:04;252.23;;;101.40;;
26620;SDS011;14253;44.840;10.444;2023-02-23T06:12:30;223.65;;;93.18;;
26620;SDS011;14253;44.840;10.444;2023-02-23T06:14:56;238.43;;;100.13;;
26620;SDS011;14253;44.840;10.444;2023-02-23T06:17:23;221.82;;;95.68;;
26620;SDS011;14253;44.840;10.444;2023-02-23T06:19:49;239.35;;;98.72;;
26620;SDS011;14253;44.840;10.444;2023-02-23T06:22:15;241.25;;;100.13;;
26620;SDS011;14253;44.840;10.444;2023-02-23T06:24:44;229.48;;;96.70;;
26620;SDS011;14253;44.840;10.444;2023-02-23T06:27:10;210.98;;;91.93;;
26620;SDS011;14253;44.840;10.444;2023-02-23T06:29:36;220.50;;;93.38;;
26620;SDS011;14253;44.840;10.444;2023-02-23T06:32:02;206.75;;;90.05;;
26620;SDS011;14253;44.840;10.444;2023-02-23T06:34:29;234.48;;;99.85;;
26620;SDS011;14253;44.840;10.444;2023-02-23T06:36:57;232.60;;;96.30;;
26620;SDS011;14253;44.840;10.444;2023-02-23T06:39:23;247.75;;;102.45;;
26620;SDS011;14253;44.840;10.444;2023-02-23T06:41:49;252.00;;;100.20;;
26620;SDS011;14253;44.840;10.444;2023-02-23T06:44:15;233.85;;;101.15;;
26620;SDS011;14253;44.840;10.444;2023-02-23T06:46:41;220.48;;;96.07;;
26620;SDS011;14253;44.840;10.444;2023-02-23T06:49:07;233.15;;;99.85;;
26620;SDS011;14253;44.840;10.444;2023-02-23T06:51:36;238.85;;;100.65;;
26620;SDS011;14253;44.840;10.444;2023-02-23T06:54:02;232.38;;;99.55;;
26620;SDS011;14253;44.840;10.444;2023-02-23T06:56:28;221.75;;;95.65;;
26620;SDS011;14253;44.840;10.444;2023-02-23T06:58:54;249.23;;;103.45;;
26620;SDS011;14253;44.840;10.444;2023-02-23T07:01:19;225.60;;;95.95;;
26620;SDS011;14253;44.840;10.444;2023-02-23T07:03:46;228.65;;;97.18;;
26620;SDS011;14253;44.840;10.444;2023-02-23T07:06:12;224.15;;;96.22;;
26620;SDS011;14253;44.840;10.444;2023-02-23T07:08:38;230.68;;;97.63;;
26620;SDS011;14253;44.840;10.444;2023-02-23T07:11:07;226.88;;;96.63;;
26620;SDS011;14253;44.840;10.444;2023-02-23T07:13:35;228.82;;;96.82;;
26620;SDS011;14253;44.840;10.444;2023-02-23T07:16:01;235.65;;;99.65;;
26620;SDS011;14253;44.840;10.444;2023-02-23T07:18:27;238.60;;;99.80;;
26620;SDS011;14253;44.840;10.444;2023-02-23T07:20:53;226.32;;;93.47;;
26620;SDS011;14253;44.840;10.444;2023-02-23T07:23:19;210.63;;;94.82;;
26620;SDS011;14253;44.840;10.444;2023-02-23T07:25:48;206.77;;;93.50;;
26620;SDS011;14253;44.840;10.444;2023-02-23T07:28:15;204.65;;;89.97;;
26620;SDS011;14253;44.840;10.444;2023-02-23T07:30:41;196.05;;;90.65;;
26620;SDS011;14253;44.840;10.444;2023-02-23T07:33:07;222.98;;;95.90;;
26620;SDS011;14253;44.840;10.444;2023-02-23T07:35:33;224.88;;;98.85;;
26620;SDS011;14253;44.840;10.444;2023-02-23T07:37:59;241.07;;;101.60;;
26620;SDS011;14253;44.840;10.444;2023-02-23T07:40:25;231.98;;;101.93;;
26620;SDS011;14253;44.840;10.444;2023-02-23T07:42:51;258.45;;;107.88;;
26620;SDS011;14253;44.840;10.444;2023-02-23T07:45:18;233.65;;;104.03;;
26620;SDS011;14253;44.840;10.444;2023-02-23T07:47:44;247.85;;;105.40;;
26620;SDS011;14253;44.840;10.444;2023-02-23T07:50:10;258.00;;;106.20;;
26620;SDS011;14253;44.840;10.444;2023-02-23T07:52:39;250.05;;;107.30;;
26620;SDS011;14253;44.840;10.444;2023-02-23T07:55:06;234.98;;;103.72;;
26620;SDS011;14253;44.840;10.444;2023-02-23T07:57:33;224.27;;;101.32;;
26620;SDS011;14253;44.840;10.444;2023-02-23T07:59:59;235.25;;;101.43;;
26620;SDS011;14253;44.840;10.444;2023-02-23T08:02:25;232.27;;;102.00;;
26620;SDS011;14253;44.840;10.444;2023-02-23T08:04:53;228.65;;;103.93;;
26620;SDS011;14253;44.840;10.444;2023-02-23T08:07:20;225.13;;;98.25;;
26620;SDS011;14253;44.840;10.444;2023-02-23T08:09:47;227.50;;;98.55;;
26620;SDS011;14253;44.840;10.444;2023-02-23T08:12:14;223.50;;;102.03;;
26620;SDS011;14253;44.840;10.444;2023-02-23T08:14:40;209.48;;;94.63;;
26620;SDS011;14253;44.840;10.444;2023-02-23T08:17:07;226.57;;;98.25;;
26620;SDS011;14253;44.840;10.444;2023-02-23T08:19:34;221.60;;;98.95;;
26620;SDS011;14253;44.840;10.444;2023-02-23T08:22:00;200.00;;;92.72;;
26620;SDS011;14253;44.840;10.444;2023-02-23T08:24:26;220.85;;;100.15;;
26620;SDS011;14253;44.840;10.444;2023-02-23T08:26:53;216.60;;;96.25;;
26620;SDS011;14253;44.840;10.444;2023-02-23T08:29:19;226.05;;;101.20;;
26620;SDS011;14253;44.840;10.444;2023-02-23T08:31:46;221.40;;;96.97;;
26620;SDS011;14253;44.840;10.444;2023-02-23T08:34:12;233.25;;;100.50;;
26620;SDS011;14253;44.840;10.444;2023-02-23T08:36:38;223.30;;;100.10;;
26620;SDS011;14253;44.840;10.444;2023-02-23T08:39:05;224.35;;;104.07;;
26620;SDS011;14253;44.840;10.444;2023-02-23T08:41:32;233.40;;;104.78;;
26620;SDS011;14253;44.840;10.444;2023-02-23T08:43:58;234.40;;;102.60;;
26620;SDS011;14253;44.840;10.444;2023-02-23T08:46:24;218.43;;;98.78;;
26620;SDS011;14253;44.840;10.444;2023-02-23T08:48:50;226.95;;;103.25;;
26620;SDS011;14253;44.840;10.444;2023-02-23T08:51:16;227.80;;;102.68;;
26620;SDS011;14253;44.840;10.444;2023-02-23T08:53:42;233.55;;;104.45;;
26620;SDS011;14253;44.840;10.444;2023-02-23T08:56:09;217.68;;;101.72;;
26620;SDS011;14253;44.840;10.444;2023-02-23T08:58:36;227.55;;;101.03;;
26620;SDS011;14253;44.840;10.444;2023-02-23T09:01:03;223.77;;;100.97;;
26620;SDS011;14253;44.840;10.444;2023-02-23T09:03:30;225.55;;;99.88;;
26620;SDS011;14253;44.840;10.444;2023-02-23T09:05:58;227.05;;;99.10;;
26620;SDS011;14253;44.840;10.444;2023-02-23T09:08:33;220.25;;;101.13;;
26620;SDS011;14253;44.840;10.444;2023-02-23T09:10:59;223.40;;;101.68;;
26620;SDS011;14253;44.840;10.444;2023-02-23T09:13:25;217.82;;;100.57;;
26620;SDS011;14253;44.840;10.444;2023-02-23T09:15:51;222.27;;;104.78;;
26620;SDS011;14253;44.840;10.444;2023-02-23T09:18:18;218.27;;;103.25;;
26620;SDS011;14253;44.840;10.444;2023-02-23T09:20:44;200.73;;;98.68;;
26620;SDS011;14253;44.840;10.444;2023-02-23T09:23:11;200.68;;;99.60;;
26620;SDS011;14253;44.840;10.444;2023-02-23T09:25:40;195.32;;;97.00;;
26620;SDS011;14253;44.840;10.444;2023-02-23T09:28:08;194.13;;;96.25;;
26620;SDS011;14253;44.840;10.444;2023-02-23T09:30:39;186.25;;;94.53;;
26620;SDS011;14253;44.840;10.444;2023-02-23T09:33:06;186.85;;;94.40;;
26620;SDS011;14253;44.840;10.444;2023-02-23T09:35:33;183.88;;;93.60;;
26620;SDS011;14253;44.840;10.444;2023-02-23T09:38:00;182.68;;;94.35;;
26620;SDS011;14253;44.840;10.444;2023-02-23T09:40:29;186.25;;;92.35;;
26620;SDS011;14253;44.840;10.444;2023-02-23T09:48:27;177.52;;;90.38;;
26620;SDS011;14253;44.840;10.444;2023-02-23T09:50:55;175.05;;;92.72;;
26620;SDS011;14253;44.840;10.444;2023-02-23T09:56:30;178.88;;;90.85;;
26620;SDS011;14253;44.840;10.444;2023-02-23T09:58:58;175.73;;;88.50;;
26620;SDS011;14253;44.840;10.444;2023-02-23T10:04:15;168.20;;;88.70;;
26620;SDS011;14253;44.840;10.444;2023-02-23T10:07:05;172.88;;;88.35;;
26620;SDS011;14253;44.840;10.444;2023-02-23T10:15:12;170.82;;;87.40;;
26620;SDS011;14253;44.840;10.444;2023-02-23T10:20:45;162.43;;;83.93;;
26620;SDS011;14253;44.840;10.444;2023-02-23T10:23:28;161.40;;;83.65;;
26620;SDS011;14253;44.840;10.444;2023-02-23T10:26:04;165.30;;;83.95;;
26620;SDS011;14253;44.840;10.444;2023-02-23T10:28:34;144.13;;;77.07;;
26620;SDS011;14253;44.840;10.444;2023-02-23T10:31:02;151.40;;;80.28;;
26620;SDS011;14253;44.840;10.444;2023-02-23T10:33:43;135.75;;;75.80;;
26620;SDS011;14253;44.840;10.444;2023-02-23T10:36:11;143.15;;;75.68;;
26620;SDS011;14253;44.840;10.444;2023-02-23T10:38:41;138.80;;;74.15;;
26620;SDS011;14253;44.840;10.444;2023-02-23T10:41:07;147.27;;;76.13;;
26620;SDS011;14253;44.840;10.444;2023-02-23T10:43:34;146.13;;;76.05;;
26620;SDS011;14253;44.840;10.444;2023-02-23T10:46:01;129.35;;;70.63;;
26620;SDS011;14253;44.840;10.444;2023-02-23T10:48:31;118.38;;;63.95;;
26620;SDS011;14253;44.840;10.444;2023-02-23T10:51:04;118.32;;;59.15;;
26620;SDS011;14253;44.840;10.444;2023-02-23T10:53:37;92.78;;;51.22;;
26620;SDS011;14253;44.840;10.444;2023-02-23T10:56:05;84.40;;;46.35;;
26620;SDS011;14253;44.840;10.444;2023-02-23T11:01:11;108.47;;;57.28;;
26620;SDS011;14253;44.840;10.444;2023-02-23T11:03:41;114.55;;;60.60;;
26620;SDS011;14253;44.840;10.444;2023-02-23T11:06:31;118.55;;;61.40;;
26620;SDS011;14253;44.840;10.444;2023-02-23T11:09:21;109.88;;;59.20;;
26620;SDS011;14253;44.840;10.444;2023-02-23T11:11:59;96.18;;;50.42;;
26620;SDS011;14253;44.840;10.444;2023-02-23T11:14:41;95.05;;;49.58;;
26620;SDS011;14253;44.840;10.444;2023-02-23T11:17:08;99.78;;;56.33;;
26620;SDS011;14253;44.840;10.444;2023-02-23T11:19:49;107.70;;;58.88;;
26620;SDS011;14253;44.840;10.444;2023-02-23T11:22:17;104.15;;;56.33;;
26620;SDS011;14253;44.840;10.444;2023-02-23T11:24:47;115.28;;;61.42;;
26620;SDS011;14253;44.840;10.444;2023-02-23T11:27:19;111.95;;;60.60;;
26620;SDS011;14253;44.840;10.444;2023-02-23T11:29:48;113.18;;;59.38;;
26620;SDS011;14253;44.840;10.444;2023-02-23T11:32:19;106.60;;;57.47;;
26620;SDS011;14253;44.840;10.444;2023-02-23T11:37:55;101.45;;;56.35;;
26620;SDS011;14253;44.840;10.444;2023-02-23T11:42:55;108.85;;;57.72;;
26620;SDS011;14253;44.840;10.444;2023-02-23T11:45:24;98.63;;;55.55;;
26620;SDS011;14253;44.840;10.444;2023-02-23T11:47:55;110.18;;;57.78;;
26620;SDS011;14253;44.840;10.444;2023-02-23T11:52:58;103.15;;;56.67;;
26620;SDS011;14253;44.840;10.444;2023-02-23T11:55:38;103.60;;;56.33;;
26620;SDS011;14253;44.840;10.444;2023-02-23T11:58:47;100.38;;;54.20;;
26620;SDS011;14253;44.840;10.444;2023-02-23T12:01:04;95.97;;;52.50;;
26620;SDS011;14253;44.840;10.444;2023-02-23T12:03:45;92.18;;;50.13;;
26620;SDS011;14253;44.840;10.444;2023-02-23T12:08:56;95.45;;;52.45;;
26620;SDS011;14253;44.840;10.444;2023-02-23T12:11:44;92.95;;;51.20;;
26620;SDS011;14253;44.840;10.444;2023-02-23T12:14:21;90.55;;;50.53;;
26620;SDS011;14253;44.840;10.444;2023-02-23T12:17:05;92.03;;;51.28;;
26620;SDS011;14253;44.840;10.444;2023-02-23T12:19:46;90.40;;;48.95;;
26620;SDS011;14253;44.840;10.444;2023-02-23T12:22:21;90.05;;;46.92;;
26620;SDS011;14253;44.840;10.444;2023-02-23T12:24:58;78.28;;;44.70;;
26620;SDS011;14253;44.840;10.444;2023-02-23T12:33:12;76.72;;;45.47;;
26620;SDS011;14253;44.840;10.444;2023-02-23T12:35:55;82.32;;;44.95;;
26620;SDS011;14253;44.840;10.444;2023-02-23T12:41:13;81.13;;;43.75;;
26620;SDS011;14253;44.840;10.444;2023-02-23T12:43:50;86.45;;;48.33;;
26620;SDS011;14253;44.840;10.444;2023-02-23T12:46:27;94.05;;;49.22;;
26620;SDS011;14253;44.840;10.444;2023-02-23T12:49:02;91.25;;;47.25;;
26620;SDS011;14253;44.840;10.444;2023-02-23T12:51:39;95.28;;;47.95;;
26620;SDS011;14253;44.840;10.444;2023-02-23T12:54:19;84.45;;;44.53;;
26620;SDS011;14253;44.840;10.444;2023-02-23T13:02:02;69.53;;;39.00;;
26620;SDS011;14253;44.840;10.444;2023-02-23T13:07:20;70.63;;;36.08;;
26620;SDS011;14253;44.840;10.444;2023-02-23T13:09:59;71.05;;;39.80;;
26620;SDS011;14253;44.840;10.444;2023-02-23T13:23:57;77.68;;;43.83;;
26620;SDS011;14253;44.840;10.444;2023-02-23T13:29:05;67.72;;;39.35;;
26620;SDS011;14253;44.840;10.444;2023-02-23T13:31:44;79.50;;;44.80;;
26620;SDS011;14253;44.840;10.444;2023-02-23T13:34:12;81.30;;;45.67;;
26620;SDS011;14253;44.840;10.444;2023-02-23T13:36:45;87.93;;;47.42;;
26620;SDS011;14253;44.840;10.444;2023-02-23T13:39:19;79.85;;;44.80;;
26620;SDS011;14253;44.840;10.444;2023-02-23T13:42:51;79.78;;;44.65;;
26620;SDS011;14253;44.840;10.444;2023-02-23T13:47:38;80.20;;;44.25;;
26620;SDS011;14253;44.840;10.444;2023-02-23T13:50:14;85.78;;;46.05;;
26620;SDS011;14253;44.840;10.444;2023-02-23T13:52:47;86.30;;;46.35;;
26620;SDS011;14253;44.840;10.444;2023-02-23T13:58:10;81.50;;;45.95;;
26620;SDS011;14253;44.840;10.444;2023-02-23T14:00:39;85.90;;;47.28;;
26620;SDS011;14253;44.840;10.444;2023-02-23T14:03:07;87.50;;;45.67;;
26620;SDS011;14253;44.840;10.444;2023-02-23T14:05:54;82.30;;;44.45;;
26620;SDS011;14253;44.840;10.444;2023-02-23T14:08:28;88.32;;;46.25;;
26620;SDS011;14253;44.840;10.444;2023-02-23T14:10:58;78.65;;;44.55;;
26620;SDS011;14253;44.840;10.444;2023-02-23T14:13:26;85.80;;;45.97;;
26620;SDS011;14253;44.840;10.444;2023-02-23T14:16:28;85.75;;;46.67;;
26620;SDS011;14253;44.840;10.444;2023-02-23T14:21:34;82.65;;;45.10;;
26620;SDS011;14253;44.840;10.444;2023-02-23T14:24:24;91.43;;;47.67;;
26620;SDS011;14253;44.840;10.444;2023-02-23T14:29:29;82.68;;;48.60;;
26620;SDS011;14253;44.840;10.444;2023-02-23T14:34:55;82.28;;;44.85;;
26620;SDS011;14253;44.840;10.444;2023-02-23T14:37:27;83.90;;;45.60;;
26620;SDS011;14253;44.840;10.444;2023-02-23T14:42:45;82.45;;;45.67;;
26620;SDS011;14253;44.840;10.444;2023-02-23T14:45:22;88.63;;;46.90;;
26620;SDS011;14253;44.840;10.444;2023-02-23T14:48:02;85.20;;;45.83;;
26620;SDS011;14253;44.840;10.444;2023-02-23T14:50:33;87.07;;;46.58;;
26620;SDS011;14253;44.840;10.444;2023-02-23T14:53:00;87.22;;;46.72;;
26620;SDS011;14253;44.840;10.444;2023-02-23T14:55:29;76.55;;;44.00;;
26620;SDS011;14253;44.840;10.444;2023-02-23T14:57:59;82.05;;;46.78;;
26620;SDS011;14253;44.840;10.444;2023-02-23T15:00:27;77.70;;;44.25;;
26620;SDS011;14253;44.840;10.444;2023-02-23T15:05:30;80.73;;;44.33;;
26620;SDS011;14253;44.840;10.444;2023-02-23T15:08:08;83.20;;;44.33;;
26620;SDS011;14253;44.840;10.444;2023-02-23T15:10:40;81.90;;;45.17;;
26620;SDS011;14253;44.840;10.444;2023-02-23T15:13:08;77.25;;;43.22;;
26620;SDS011;14253;44.840;10.444;2023-02-23T15:15:53;85.70;;;45.95;;
26620;SDS011;14253;44.840;10.444;2023-02-23T15:18:23;78.05;;;43.70;;
26620;SDS011;14253;44.840;10.444;2023-02-23T15:20:56;86.57;;;46.13;;
26620;SDS011;14253;44.840;10.444;2023-02-23T15:23:23;80.93;;;45.20;;
26620;SDS011;14253;44.840;10.444;2023-02-23T15:25:49;88.45;;;47.75;;
26620;SDS011;14253;44.840;10.444;2023-02-23T15:28:24;81.20;;;43.65;;
26620;SDS011;14253;44.840;10.444;2023-02-23T15:30:59;83.93;;;46.08;;
26620;SDS011;14253;44.840;10.444;2023-02-23T15:33:25;86.10;;;46.25;;
26620;SDS011;14253;44.840;10.444;2023-02-23T15:38:33;87.05;;;47.15;;
26620;SDS011;14253;44.840;10.444;2023-02-23T15:41:06;87.80;;;46.72;;
26620;SDS011;14253;44.840;10.444;2023-02-23T15:43:40;87.78;;;48.00;;
26620;SDS011;14253;44.840;10.444;2023-02-23T15:46:07;85.88;;;47.20;;
26620;SDS011;14253;44.840;10.444;2023-02-23T15:51:04;89.80;;;47.55;;
26620;SDS011;14253;44.840;10.444;2023-02-23T15:53:37;88.60;;;47.65;;
26620;SDS011;14253;44.840;10.444;2023-02-23T15:56:24;92.47;;;49.45;;
26620;SDS011;14253;44.840;10.444;2023-02-23T15:58:53;92.57;;;49.92;;
26620;SDS011;14253;44.840;10.444;2023-02-23T16:01:28;93.13;;;49.80;;
26620;SDS011;14253;44.840;10.444;2023-02-23T16:03:58;95.05;;;51.95;;
26620;SDS011;14253;44.840;10.444;2023-02-23T16:11:46;89.20;;;45.90;;
26620;SDS011;14253;44.840;10.444;2023-02-23T16:14:34;85.13;;;46.47;;
26620;SDS011;14253;44.840;10.444;2023-02-23T16:17:25;84.32;;;42.95;;
26620;SDS011;14253;44.840;10.444;2023-02-23T16:19:55;84.82;;;45.85;;
26620;SDS011;14253;44.840;10.444;2023-02-23T16:22:32;88.60;;;48.53;;
26620;SDS011;14253;44.840;10.444;2023-02-23T16:25:00;86.28;;;45.03;;
26620;SDS011;14253;44.840;10.444;2023-02-23T16:27:31;82.10;;;43.90;;
26620;SDS011;14253;44.840;10.444;2023-02-23T16:29:58;79.50;;;43.33;;
26620;SDS011;14253;44.840;10.444;2023-02-23T16:32:31;79.65;;;41.60;;
26620;SDS011;14253;44.840;10.444;2023-02-23T16:35:01;73.88;;;40.85;;
26620;SDS011;14253;44.840;10.444;2023-02-23T16:37:47;72.47;;;39.28;;
26620;SDS011;14253;44.840;10.444;2023-02-23T16:40:21;78.22;;;42.03;;
26620;SDS011;14253;44.840;10.444;2023-02-23T16:42:47;77.88;;;42.40;;
26620;SDS011;14253;44.840;10.444;2023-02-23T16:45:13;75.35;;;41.15;;
26620;SDS011;14253;44.840;10.444;2023-02-23T16:47:42;80.38;;;42.88;;
26620;SDS011;14253;44.840;10.444;2023-02-23T16:50:13;74.72;;;40.95;;
26620;SDS011;14253;44.840;10.444;2023-02-23T16:52:50;68.07;;;37.03;;
26620;SDS011;14253;44.840;10.444;2023-02-23T16:55:18;68.43;;;39.03;;